sensor_id;sensor_type;location;lat;lon;timestamp;temperature;humidity
16437;DHT22;8328;52.206;21.006;2023-06-04T00:00:14;11.50;26.80
16437;DHT22;8328;52.206;21.006;2023-06-04T00:02:40;11.50;27.50
16437;DHT22;8328;52.206;21.006;2023-06-04T00:05:06;11.50;27.90
16437;DHT22;8328;52.206;21.006;2023-06-04T00:07:32;11.40;28.30
16437;DHT22;8328;52.206;21.006;2023-06-04T00:09:57;11.40;28.30
16437;DHT22;8328;52.206;21.006;2023-06-04T00:14:50;11.40;28.50
16437;DHT22;8328;52.206;21.006;2023-06-04T00:17:15;11.30;29.30
16437;DHT22;8328;52.206;21.006;2023-06-04T00:19:41;11.30;29.40
16437;DHT22;8328;52.206;21.006;2023-06-04T00:22:07;11.20;29.40
16437;DHT22;8328;52.206;21.006;2023-06-04T00:24:36;11.20;29.60
16437;DHT22;8328;52.206;21.006;2023-06-04T00:27:02;11.10;29.80
16437;DHT22;8328;52.206;21.006;2023-06-04T00:29:28;11.10;30.00
16437;DHT22;8328;52.206;21.006;2023-06-04T00:31:54;11.00;30.50
16437;DHT22;8328;52.206;21.006;2023-06-04T00:34:20;11.10;30.00
16437;DHT22;8328;52.206;21.006;2023-06-04T00:41:37;11.00;30.50
16437;DHT22;8328;52.206;21.006;2023-06-04T00:51:25;10.90;31.00
16437;DHT22;8328;52.206;21.006;2023-06-04T00:53:52;10.90;31.10
16437;DHT22;8328;52.206;21.006;2023-06-04T00:56:19;10.80;31.10
16437;DHT22;8328;52.206;21.006;2023-06-04T00:58:45;10.80;31.30
16437;DHT22;8328;52.206;21.006;2023-06-04T01:04:24;10.80;31.70
16437;DHT22;8328;52.206;21.006;2023-06-04T01:06:53;10.80;31.90
16437;DHT22;8328;52.206;21.006;2023-06-04T01:11:48;10.80;31.80
16437;DHT22;8328;52.206;21.006;2023-06-04T01:16:49;10.80;31.60
16437;DHT22;8328;52.206;21.006;2023-06-04T01:22:02;10.90;31.30
16437;DHT22;8328;52.206;21.006;2023-06-04T01:24:31;10.80;31.00
16437;DHT22;8328;52.206;21.006;2023-06-04T01:36:47;10.80;31.30
16437;DHT22;8328;52.206;21.006;2023-06-04T01:39:13;10.70;31.40
16437;DHT22;8328;52.206;21.006;2023-06-04T01:41:39;10.70;31.70
16437;DHT22;8328;52.206;21.006;2023-06-04T01:53:49;10.60;32.60
16437;DHT22;8328;52.206;21.006;2023-06-04T02:06:04;10.60;32.40
16437;DHT22;8328;52.206;21.006;2023-06-04T02:08:34;10.70;32.50
16437;DHT22;8328;52.206;21.006;2023-06-04T02:13:25;10.70;32.30
16437;DHT22;8328;52.206;21.006;2023-06-04T02:15:51;10.70;32.30
16437;DHT22;8328;52.206;21.006;2023-06-04T02:18:19;10.70;32.30
16437;DHT22;8328;52.206;21.006;2023-06-04T02:20:47;10.70;32.10
16437;DHT22;8328;52.206;21.006;2023-06-04T02:23:16;10.60;32.50
16437;DHT22;8328;52.206;21.006;2023-06-04T02:28:13;10.60;31.90
16437;DHT22;8328;52.206;21.006;2023-06-04T02:35:32;10.70;32.00
16437;DHT22;8328;52.206;21.006;2023-06-04T02:37:58;10.70;31.90
16437;DHT22;8328;52.206;21.006;2023-06-04T02:40:27;10.70;31.90
16437;DHT22;8328;52.206;21.006;2023-06-04T02:45:20;10.70;31.80
16437;DHT22;8328;52.206;21.006;2023-06-04T02:50:13;10.80;32.10
16437;DHT22;8328;52.206;21.006;2023-06-04T02:55:06;10.70;31.80
16437;DHT22;8328;52.206;21.006;2023-06-04T02:57:33;10.70;31.90
16437;DHT22;8328;52.206;21.006;2023-06-04T02:59:59;10.80;32.20
16437;DHT22;8328;52.206;21.006;2023-06-04T03:07:21;10.80;32.30
16437;DHT22;8328;52.206;21.006;2023-06-04T03:09:49;10.90;32.60
16437;DHT22;8328;52.206;21.006;2023-06-04T03:12:14;10.90;32.50
16437;DHT22;8328;52.206;21.006;2023-06-04T03:17:06;10.90;32.40
16437;DHT22;8328;52.206;21.006;2023-06-04T03:19:40;11.00;32.60
16437;DHT22;8328;52.206;21.006;2023-06-04T03:22:08;11.00;32.70
16437;DHT22;8328;52.206;21.006;2023-06-04T03:24:36;11.00;32.40
16437;DHT22;8328;52.206;21.006;2023-06-04T03:27:03;11.00;32.20
16437;DHT22;8328;52.206;21.006;2023-06-04T03:31:59;11.00;32.30
16437;DHT22;8328;52.206;21.006;2023-06-04T03:34:25;11.10;32.50
16437;DHT22;8328;52.206;21.006;2023-06-04T03:36:54;11.20;32.50
16437;DHT22;8328;52.206;21.006;2023-06-04T03:39:21;11.20;32.40
16437;DHT22;8328;52.206;21.006;2023-06-04T03:41:47;11.30;32.30
16437;DHT22;8328;52.206;21.006;2023-06-04T03:44:17;11.40;32.20
16437;DHT22;8328;52.206;21.006;2023-06-04T03:46:43;11.50;32.00
16437;DHT22;8328;52.206;21.006;2023-06-04T03:49:10;11.50;31.70
16437;DHT22;8328;52.206;21.006;2023-06-04T03:51:37;11.70;31.90
16437;DHT22;8328;52.206;21.006;2023-06-04T03:54:03;11.80;31.90
16437;DHT22;8328;52.206;21.006;2023-06-04T03:58:56;11.70;31.70
16437;DHT22;8328;52.206;21.006;2023-06-04T04:01:22;11.80;32.00
16437;DHT22;8328;52.206;21.006;2023-06-04T04:06:16;12.20;31.40
16437;DHT22;8328;52.206;21.006;2023-06-04T04:11:13;12.60;31.10
16437;DHT22;8328;52.206;21.006;2023-06-04T04:16:05;12.70;30.50
16437;DHT22;8328;52.206;21.006;2023-06-04T04:18:35;12.80;30.60
16437;DHT22;8328;52.206;21.006;2023-06-04T04:21:02;13.00;30.60
16437;DHT22;8328;52.206;21.006;2023-06-04T04:23:29;13.00;30.30
16437;DHT22;8328;52.206;21.006;2023-06-04T04:25:55;13.20;30.20
16437;DHT22;8328;52.206;21.006;2023-06-04T04:28:25;13.40;29.80
16437;DHT22;8328;52.206;21.006;2023-06-04T04:30:57;13.60;29.30
16437;DHT22;8328;52.206;21.006;2023-06-04T04:33:24;13.60;29.60
16437;DHT22;8328;52.206;21.006;2023-06-04T04:35:51;13.80;28.90
16437;DHT22;8328;52.206;21.006;2023-06-04T04:38:20;14.00;28.90
16437;DHT22;8328;52.206;21.006;2023-06-04T04:40:50;14.20;28.50
16437;DHT22;8328;52.206;21.006;2023-06-04T04:43:32;14.40;27.90
16437;DHT22;8328;52.206;21.006;2023-06-04T04:45:58;14.50;28.20
16437;DHT22;8328;52.206;21.006;2023-06-04T04:48:24;14.60;28.50
16437;DHT22;8328;52.206;21.006;2023-06-04T04:50:51;14.90;26.80
16437;DHT22;8328;52.206;21.006;2023-06-04T04:53:17;15.10;26.60
16437;DHT22;8328;52.206;21.006;2023-06-04T04:55:43;15.20;26.10
16437;DHT22;8328;52.206;21.006;2023-06-04T04:58:10;15.20;26.80
16437;DHT22;8328;52.206;21.006;2023-06-04T05:00:36;15.30;26.10
16437;DHT22;8328;52.206;21.006;2023-06-04T05:03:01;15.40;26.20
16437;DHT22;8328;52.206;21.006;2023-06-04T05:07:53;15.50;25.90
16437;DHT22;8328;52.206;21.006;2023-06-04T05:10:20;15.90;26.10
16437;DHT22;8328;52.206;21.006;2023-06-04T05:12:55;16.20;25.70
16437;DHT22;8328;52.206;21.006;2023-06-04T05:15:21;16.30;25.60
16437;DHT22;8328;52.206;21.006;2023-06-04T05:17:47;16.70;25.60
16437;DHT22;8328;52.206;21.006;2023-06-04T05:20:14;17.10;24.80
16437;DHT22;8328;52.206;21.006;2023-06-04T05:22:41;17.40;25.10
16437;DHT22;8328;52.206;21.006;2023-06-04T05:25:08;17.80;24.20
16437;DHT22;8328;52.206;21.006;2023-06-04T05:27:35;18.00;23.20
16437;DHT22;8328;52.206;21.006;2023-06-04T05:30:02;17.80;23.30
16437;DHT22;8328;52.206;21.006;2023-06-04T05:32:29;17.80;22.60
16437;DHT22;8328;52.206;21.006;2023-06-04T05:34:58;17.80;22.80
16437;DHT22;8328;52.206;21.006;2023-06-04T05:37:27;17.80;22.90
16437;DHT22;8328;52.206;21.006;2023-06-04T05:39:57;18.00;22.40
16437;DHT22;8328;52.206;21.006;2023-06-04T05:42:23;18.10;22.40
16437;DHT22;8328;52.206;21.006;2023-06-04T05:47:16;18.50;20.30
16437;DHT22;8328;52.206;21.006;2023-06-04T05:49:42;18.60;19.80
16437;DHT22;8328;52.206;21.006;2023-06-04T05:54:35;18.70;19.40
16437;DHT22;8328;52.206;21.006;2023-06-04T05:57:02;18.80;19.40
16437;DHT22;8328;52.206;21.006;2023-06-04T05:59:29;19.10;19.50
16437;DHT22;8328;52.206;21.006;2023-06-04T06:04:21;19.10;18.50
16437;DHT22;8328;52.206;21.006;2023-06-04T06:06:47;19.30;19.70
16437;DHT22;8328;52.206;21.006;2023-06-04T06:09:14;18.90;18.30
16437;DHT22;8328;52.206;21.006;2023-06-04T06:14:07;19.20;18.80
16437;DHT22;8328;52.206;21.006;2023-06-04T06:16:32;19.40;19.10
16437;DHT22;8328;52.206;21.006;2023-06-04T06:23:51;19.20;17.00
16437;DHT22;8328;52.206;21.006;2023-06-04T06:26:19;19.10;17.40
16437;DHT22;8328;52.206;21.006;2023-06-04T06:31:11;19.10;17.60
16437;DHT22;8328;52.206;21.006;2023-06-04T06:36:13;19.00;18.20
16437;DHT22;8328;52.206;21.006;2023-06-04T06:38:39;19.10;18.10
16437;DHT22;8328;52.206;21.006;2023-06-04T06:41:07;19.10;18.20
16437;DHT22;8328;52.206;21.006;2023-06-04T06:43:33;19.30;18.30
16437;DHT22;8328;52.206;21.006;2023-06-04T06:45:59;19.90;17.30
16437;DHT22;8328;52.206;21.006;2023-06-04T06:48:25;20.10;16.50
16437;DHT22;8328;52.206;21.006;2023-06-04T06:50:51;20.00;16.00
16437;DHT22;8328;52.206;21.006;2023-06-04T06:53:17;19.90;15.60
16437;DHT22;8328;52.206;21.006;2023-06-04T06:58:27;19.60;16.00
16437;DHT22;8328;52.206;21.006;2023-06-04T07:00:53;19.60;16.10
16437;DHT22;8328;52.206;21.006;2023-06-04T07:03:22;19.60;16.10
16437;DHT22;8328;52.206;21.006;2023-06-04T07:08:14;19.40;15.70
16437;DHT22;8328;52.206;21.006;2023-06-04T07:10:40;19.40;16.00
16437;DHT22;8328;52.206;21.006;2023-06-04T07:13:05;19.30;15.80
16437;DHT22;8328;52.206;21.006;2023-06-04T07:17:57;19.50;15.40
16437;DHT22;8328;52.206;21.006;2023-06-04T07:20:25;19.40;15.00
16437;DHT22;8328;52.206;21.006;2023-06-04T07:22:56;19.30;14.70
16437;DHT22;8328;52.206;21.006;2023-06-04T07:25:22;19.50;15.10
16437;DHT22;8328;52.206;21.006;2023-06-04T07:27:50;19.50;14.90
16437;DHT22;8328;52.206;21.006;2023-06-04T07:32:47;19.60;14.00
16437;DHT22;8328;52.206;21.006;2023-06-04T07:40:25;19.30;14.10
16437;DHT22;8328;52.206;21.006;2023-06-04T07:55:04;19.20;14.50
16437;DHT22;8328;52.206;21.006;2023-06-04T07:57:31;19.30;14.60
16437;DHT22;8328;52.206;21.006;2023-06-04T07:59:57;19.30;14.10
16437;DHT22;8328;52.206;21.006;2023-06-04T08:12:30;19.40;14.70
16437;DHT22;8328;52.206;21.006;2023-06-04T08:17:32;19.60;14.50
16437;DHT22;8328;52.206;21.006;2023-06-04T08:22:25;19.50;14.20
16437;DHT22;8328;52.206;21.006;2023-06-04T08:24:53;19.70;14.20
16437;DHT22;8328;52.206;21.006;2023-06-04T08:29:45;19.80;13.00
16437;DHT22;8328;52.206;21.006;2023-06-04T08:32:14;19.80;12.10
16437;DHT22;8328;52.206;21.006;2023-06-04T08:34:43;19.80;12.70
16437;DHT22;8328;52.206;21.006;2023-06-04T08:42:05;19.70;12.20
16437;DHT22;8328;52.206;21.006;2023-06-04T08:44:33;19.80;12.40
16437;DHT22;8328;52.206;21.006;2023-06-04T08:47:03;19.80;12.10
16437;DHT22;8328;52.206;21.006;2023-06-04T08:49:34;20.00;12.00
16437;DHT22;8328;52.206;21.006;2023-06-04T08:54:28;19.80;11.60
16437;DHT22;8328;52.206;21.006;2023-06-04T08:56:56;19.80;11.30
16437;DHT22;8328;52.206;21.006;2023-06-04T08:59:23;19.70;10.60
16437;DHT22;8328;52.206;21.006;2023-06-04T09:01:55;19.70;10.70
16437;DHT22;8328;52.206;21.006;2023-06-04T09:04:21;20.00;10.40
16437;DHT22;8328;52.206;21.006;2023-06-04T09:06:48;20.40;10.60
16437;DHT22;8328;52.206;21.006;2023-06-04T09:09:15;20.20;10.70
16437;DHT22;8328;52.206;21.006;2023-06-04T09:11:54;20.30;10.50
16437;DHT22;8328;52.206;21.006;2023-06-04T09:14:21;20.40;10.10
16437;DHT22;8328;52.206;21.006;2023-06-04T09:16:48;20.40;10.30
16437;DHT22;8328;52.206;21.006;2023-06-04T09:19:15;20.60;10.60
16437;DHT22;8328;52.206;21.006;2023-06-04T09:21:55;20.70;10.10
16437;DHT22;8328;52.206;21.006;2023-06-04T09:24:23;20.90;10.50
16437;DHT22;8328;52.206;21.006;2023-06-04T09:26:49;20.90;10.00
16437;DHT22;8328;52.206;21.006;2023-06-04T09:29:16;21.00;10.10
16437;DHT22;8328;52.206;21.006;2023-06-04T09:31:44;21.20;9.60
16437;DHT22;8328;52.206;21.006;2023-06-04T09:34:10;21.30;9.20
16437;DHT22;8328;52.206;21.006;2023-06-04T09:36:36;21.40;9.00
16437;DHT22;8328;52.206;21.006;2023-06-04T09:39:04;21.30;8.50
16437;DHT22;8328;52.206;21.006;2023-06-04T09:41:40;21.50;9.00
16437;DHT22;8328;52.206;21.006;2023-06-04T09:44:06;21.70;8.90
16437;DHT22;8328;52.206;21.006;2023-06-04T09:49:04;21.80;8.20
16437;DHT22;8328;52.206;21.006;2023-06-04T09:51:30;22.10;8.50
16437;DHT22;8328;52.206;21.006;2023-06-04T09:54:02;22.30;8.40
16437;DHT22;8328;52.206;21.006;2023-06-04T09:56:28;22.40;9.00
16437;DHT22;8328;52.206;21.006;2023-06-04T09:58:59;22.60;8.50
16437;DHT22;8328;52.206;21.006;2023-06-04T10:01:29;22.90;6.70
16437;DHT22;8328;52.206;21.006;2023-06-04T10:04:02;23.00;6.00
16437;DHT22;8328;52.206;21.006;2023-06-04T10:06:33;23.00;5.70
16437;DHT22;8328;52.206;21.006;2023-06-04T10:09:07;23.00;5.90
16437;DHT22;8328;52.206;21.006;2023-06-04T10:11:39;23.20;5.50
16437;DHT22;8328;52.206;21.006;2023-06-04T10:14:27;23.20;5.60
16437;DHT22;8328;52.206;21.006;2023-06-04T10:16:57;23.30;5.30
16437;DHT22;8328;52.206;21.006;2023-06-04T10:19:24;23.20;5.70
16437;DHT22;8328;52.206;21.006;2023-06-04T10:21:50;23.20;5.50
16437;DHT22;8328;52.206;21.006;2023-06-04T10:24:18;23.30;6.20
16437;DHT22;8328;52.206;21.006;2023-06-04T10:26:47;23.50;5.90
16437;DHT22;8328;52.206;21.006;2023-06-04T10:29:14;23.30;5.10
16437;DHT22;8328;52.206;21.006;2023-06-04T10:31:41;23.40;5.50
16437;DHT22;8328;52.206;21.006;2023-06-04T10:36:45;23.20;4.80
16437;DHT22;8328;52.206;21.006;2023-06-04T10:41:37;23.60;5.00
16437;DHT22;8328;52.206;21.006;2023-06-04T10:46:40;24.00;4.30
16437;DHT22;8328;52.206;21.006;2023-06-04T10:49:10;24.30;4.70
16437;DHT22;8328;52.206;21.006;2023-06-04T10:56:34;25.10;2.30
16437;DHT22;8328;52.206;21.006;2023-06-04T10:59:12;25.30;2.30
16437;DHT22;8328;52.206;21.006;2023-06-04T11:01:38;25.60;2.00
16437;DHT22;8328;52.206;21.006;2023-06-04T11:06:30;26.10;1.00
16437;DHT22;8328;52.206;21.006;2023-06-04T11:09:06;26.30;1.00
16437;DHT22;8328;52.206;21.006;2023-06-04T11:11:32;26.40;1.50
16437;DHT22;8328;52.206;21.006;2023-06-04T11:14:23;27.10;1.00
16437;DHT22;8328;52.206;21.006;2023-06-04T11:21:41;28.40;1.00
16437;DHT22;8328;52.206;21.006;2023-06-04T11:24:07;28.50;1.00
16437;DHT22;8328;52.206;21.006;2023-06-04T11:26:34;28.80;1.00
16437;DHT22;8328;52.206;21.006;2023-06-04T11:33:54;30.00;1.00
16437;DHT22;8328;52.206;21.006;2023-06-04T11:36:27;30.40;1.00
16437;DHT22;8328;52.206;21.006;2023-06-04T11:39:00;30.60;1.00
16437;DHT22;8328;52.206;21.006;2023-06-04T11:41:31;30.60;1.00
16437;DHT22;8328;52.206;21.006;2023-06-04T11:44:06;30.70;1.00
16437;DHT22;8328;52.206;21.006;2023-06-04T11:46:32;30.70;1.00
16437;DHT22;8328;52.206;21.006;2023-06-04T11:51:26;31.00;1.00
16437;DHT22;8328;52.206;21.006;2023-06-04T12:01:12;31.80;1.00
16437;DHT22;8328;52.206;21.006;2023-06-04T12:03:42;32.20;1.00
16437;DHT22;8328;52.206;21.006;2023-06-04T12:06:16;32.20;1.00
16437;DHT22;8328;52.206;21.006;2023-06-04T12:08:52;32.50;1.00
16437;DHT22;8328;52.206;21.006;2023-06-04T12:11:30;32.80;1.00
16437;DHT22;8328;52.206;21.006;2023-06-04T12:14:08;29.80;1.00
16437;DHT22;8328;52.206;21.006;2023-06-04T12:19:11;33.50;1.00
16437;DHT22;8328;52.206;21.006;2023-06-04T12:21:38;33.50;1.00
16437;DHT22;8328;52.206;21.006;2023-06-04T12:24:08;34.30;1.00
16437;DHT22;8328;52.206;21.006;2023-06-04T12:26:37;35.20;1.00
16437;DHT22;8328;52.206;21.006;2023-06-04T12:29:13;35.20;1.00
16437;DHT22;8328;52.206;21.006;2023-06-04T12:31:41;36.40;1.00
16437;DHT22;8328;52.206;21.006;2023-06-04T12:36:33;37.20;1.00
16437;DHT22;8328;52.206;21.006;2023-06-04T12:39:01;38.60;1.00
16437;DHT22;8328;52.206;21.006;2023-06-04T12:41:28;39.60;1.00
16437;DHT22;8328;52.206;21.006;2023-06-04T12:46:21;41.50;1.00
16437;DHT22;8328;52.206;21.006;2023-06-04T12:48:51;42.10;1.00
16437;DHT22;8328;52.206;21.006;2023-06-04T12:51:18;42.10;1.00
16437;DHT22;8328;52.206;21.006;2023-06-04T12:56:10;42.90;1.00
16437;DHT22;8328;52.206;21.006;2023-06-04T13:03:33;44.90;1.00
16437;DHT22;8328;52.206;21.006;2023-06-04T13:06:02;43.30;1.00
16437;DHT22;8328;52.206;21.006;2023-06-04T13:08:34;46.00;1.00
16437;DHT22;8328;52.206;21.006;2023-06-04T13:13:28;46.30;1.00
16437;DHT22;8328;52.206;21.006;2023-06-04T13:15:55;45.70;1.00
16437;DHT22;8328;52.206;21.006;2023-06-04T13:18:21;46.10;1.00
16437;DHT22;8328;52.206;21.006;2023-06-04T13:23:14;46.30;1.00
16437;DHT22;8328;52.206;21.006;2023-06-04T13:25:40;46.30;1.00
16437;DHT22;8328;52.206;21.006;2023-06-04T13:28:06;46.90;1.00
16437;DHT22;8328;52.206;21.006;2023-06-04T13:30:37;47.70;1.00
16437;DHT22;8328;52.206;21.006;2023-06-04T13:33:05;47.70;1.00
16437;DHT22;8328;52.206;21.006;2023-06-04T13:35:31;47.00;1.00
16437;DHT22;8328;52.206;21.006;2023-06-04T13:42:52;49.00;1.00
16437;DHT22;8328;52.206;21.006;2023-06-04T13:45:18;48.90;1.00
16437;DHT22;8328;52.206;21.006;2023-06-04T13:47:47;48.80;1.00
16437;DHT22;8328;52.206;21.006;2023-06-04T13:50:14;49.10;1.00
16437;DHT22;8328;52.206;21.006;2023-06-04T13:52:40;49.90;1.00
16437;DHT22;8328;52.206;21.006;2023-06-04T13:57:53;50.50;1.00
16437;DHT22;8328;52.206;21.006;2023-06-04T14:03:01;50.80;1.00
16437;DHT22;8328;52.206;21.006;2023-06-04T14:12:46;49.50;1.00
16437;DHT22;8328;52.206;21.006;2023-06-04T14:15:12;50.00;1.00
16437;DHT22;8328;52.206;21.006;2023-06-04T14:17:38;48.90;1.00
16437;DHT22;8328;52.206;21.006;2023-06-04T14:20:08;50.40;1.00
16437;DHT22;8328;52.206;21.006;2023-06-04T14:22:38;50.50;1.00
16437;DHT22;8328;52.206;21.006;2023-06-04T14:25:07;50.50;1.00
16437;DHT22;8328;52.206;21.006;2023-06-04T14:27:34;50.00;1.00
16437;DHT22;8328;52.206;21.006;2023-06-04T14:30:04;50.70;1.00
16437;DHT22;8328;52.206;21.006;2023-06-04T14:32:30;51.10;1.00
16437;DHT22;8328;52.206;21.006;2023-06-04T14:34:57;51.20;1.00
16437;DHT22;8328;52.206;21.006;2023-06-04T14:37:23;51.90;1.00
16437;DHT22;8328;52.206;21.006;2023-06-04T14:42:15;51.90;1.00
16437;DHT22;8328;52.206;21.006;2023-06-04T14:44:41;50.70;1.00
16437;DHT22;8328;52.206;21.006;2023-06-04T14:49:33;51.80;1.00
16437;DHT22;8328;52.206;21.006;2023-06-04T14:51:59;51.80;1.00
16437;DHT22;8328;52.206;21.006;2023-06-04T14:59:18;52.40;1.00
16437;DHT22;8328;52.206;21.006;2023-06-04T15:01:44;52.40;1.00
16437;DHT22;8328;52.206;21.006;2023-06-04T15:04:12;51.70;1.00
16437;DHT22;8328;52.206;21.006;2023-06-04T15:06:38;52.30;1.00
16437;DHT22;8328;52.206;21.006;2023-06-04T15:09:03;51.60;1.00
16437;DHT22;8328;52.206;21.006;2023-06-04T15:13:59;41.50;1.00
16437;DHT22;8328;52.206;21.006;2023-06-04T15:16:28;38.50;1.00
16437;DHT22;8328;52.206;21.006;2023-06-04T15:18:54;35.80;1.00
16437;DHT22;8328;52.206;21.006;2023-06-04T15:21:21;34.30;1.00
16437;DHT22;8328;52.206;21.006;2023-06-04T15:23:47;33.00;1.00
16437;DHT22;8328;52.206;21.006;2023-06-04T15:31:12;29.70;1.00
16437;DHT22;8328;52.206;21.006;2023-06-04T15:39:13;28.10;1.00
16437;DHT22;8328;52.206;21.006;2023-06-04T15:41:43;27.80;1.00
16437;DHT22;8328;52.206;21.006;2023-06-04T15:46:37;27.10;1.00
16437;DHT22;8328;52.206;21.006;2023-06-04T15:49:06;26.80;1.00
16437;DHT22;8328;52.206;21.006;2023-06-04T15:51:34;26.30;1.00
16437;DHT22;8328;52.206;21.006;2023-06-04T16:01:25;25.50;1.00
16437;DHT22;8328;52.206;21.006;2023-06-04T16:03:51;25.20;1.00
16437;DHT22;8328;52.206;21.006;2023-06-04T16:06:20;25.00;1.00
16437;DHT22;8328;52.206;21.006;2023-06-04T16:08:47;24.90;1.00
16437;DHT22;8328;52.206;21.006;2023-06-04T16:13:40;24.80;1.00
16437;DHT22;8328;52.206;21.006;2023-06-04T16:16:07;24.60;1.00
16437;DHT22;8328;52.206;21.006;2023-06-04T16:18:38;24.50;1.00
16437;DHT22;8328;52.206;21.006;2023-06-04T16:21:05;24.40;1.00
16437;DHT22;8328;52.206;21.006;2023-06-04T16:23:31;24.30;1.00
16437;DHT22;8328;52.206;21.006;2023-06-04T16:25:57;24.10;1.00
16437;DHT22;8328;52.206;21.006;2023-06-04T16:28:23;24.00;1.00
16437;DHT22;8328;52.206;21.006;2023-06-04T16:47:57;23.40;1.00
16437;DHT22;8328;52.206;21.006;2023-06-04T17:00:18;22.80;1.00
16437;DHT22;8328;52.206;21.006;2023-06-04T17:12:29;22.30;1.00
16437;DHT22;8328;52.206;21.006;2023-06-04T17:14:56;22.20;1.00
16437;DHT22;8328;52.206;21.006;2023-06-04T17:17:22;22.10;1.00
16437;DHT22;8328;52.206;21.006;2023-06-04T17:27:09;21.80;1.00
16437;DHT22;8328;52.206;21.006;2023-06-04T17:29:38;21.70;1.00
16437;DHT22;8328;52.206;21.006;2023-06-04T17:32:04;21.60;1.00
16437;DHT22;8328;52.206;21.006;2023-06-04T17:34:30;21.50;1.00
16437;DHT22;8328;52.206;21.006;2023-06-04T17:36:57;21.40;1.00
16437;DHT22;8328;52.206;21.006;2023-06-04T17:41:52;21.20;1.00
16437;DHT22;8328;52.206;21.006;2023-06-04T17:44:18;21.10;1.00
16437;DHT22;8328;52.206;21.006;2023-06-04T17:49:10;20.90;1.00
16437;DHT22;8328;52.206;21.006;2023-06-04T18:03:53;20.20;1.00
16437;DHT22;8328;52.206;21.006;2023-06-04T18:11:11;19.90;1.00
16437;DHT22;8328;52.206;21.006;2023-06-04T18:20:56;19.50;1.00
16437;DHT22;8328;52.206;21.006;2023-06-04T18:28:15;19.20;1.00
16437;DHT22;8328;52.206;21.006;2023-06-04T18:35:34;19.00;1.00
16437;DHT22;8328;52.206;21.006;2023-06-04T18:40:29;18.70;1.20
16437;DHT22;8328;52.206;21.006;2023-06-04T18:42:55;18.60;1.80
16437;DHT22;8328;52.206;21.006;2023-06-04T18:47:47;18.20;1.80
16437;DHT22;8328;52.206;21.006;2023-06-04T18:50:14;18.30;2.10
16437;DHT22;8328;52.206;21.006;2023-06-04T18:55:07;14.60;1.00
16437;DHT22;8328;52.206;21.006;2023-06-04T18:57:34;17.90;3.00
16437;DHT22;8328;52.206;21.006;2023-06-04T19:04:58;17.80;3.70
16437;DHT22;8328;52.206;21.006;2023-06-04T19:17:18;17.40;4.50
16437;DHT22;8328;52.206;21.006;2023-06-04T19:19:48;17.40;4.80
16437;DHT22;8328;52.206;21.006;2023-06-04T19:32:09;17.00;5.70
16437;DHT22;8328;52.206;21.006;2023-06-04T19:41:58;18.80;7.30
16437;DHT22;8328;52.206;21.006;2023-06-04T19:46:53;16.80;6.60
16437;DHT22;8328;52.206;21.006;2023-06-04T19:49:22;16.80;6.90
16437;DHT22;8328;52.206;21.006;2023-06-04T20:08:57;16.30;7.80
16437;DHT22;8328;52.206;21.006;2023-06-04T20:28:29;16.00;9.20
16437;DHT22;8328;52.206;21.006;2023-06-04T20:30:56;16.10;9.70
16437;DHT22;8328;52.206;21.006;2023-06-04T20:35:50;15.70;10.50
16437;DHT22;8328;52.206;21.006;2023-06-04T20:43:08;15.60;11.70
16437;DHT22;8328;52.206;21.006;2023-06-04T20:45:39;15.80;12.00
16437;DHT22;8328;52.206;21.006;2023-06-04T20:50:31;15.50;11.50
16437;DHT22;8328;52.206;21.006;2023-06-04T20:55:23;15.50;12.10
16437;DHT22;8328;52.206;21.006;2023-06-04T20:57:49;15.50;12.40
16437;DHT22;8328;52.206;21.006;2023-06-04T21:05:10;15.40;11.90
16437;DHT22;8328;52.206;21.006;2023-06-04T21:07:36;15.40;13.10
16437;DHT22;8328;52.206;21.006;2023-06-04T21:10:03;15.30;12.50
16437;DHT22;8328;52.206;21.006;2023-06-04T21:12:29;15.20;13.10
16437;DHT22;8328;52.206;21.006;2023-06-04T21:14:55;15.30;13.30
16437;DHT22;8328;52.206;21.006;2023-06-04T21:19:47;15.20;13.20
16437;DHT22;8328;52.206;21.006;2023-06-04T21:22:14;15.10;13.10
16437;DHT22;8328;52.206;21.006;2023-06-04T21:24:40;15.10;13.60
16437;DHT22;8328;52.206;21.006;2023-06-04T21:27:09;15.10;13.50
16437;DHT22;8328;52.206;21.006;2023-06-04T21:29:35;15.10;13.10
16437;DHT22;8328;52.206;21.006;2023-06-04T21:32:01;15.00;14.20
16437;DHT22;8328;52.206;21.006;2023-06-04T21:34:27;14.90;14.50
16437;DHT22;8328;52.206;21.006;2023-06-04T21:36:54;14.90;14.40
16437;DHT22;8328;52.206;21.006;2023-06-04T21:39:20;14.90;15.10
16437;DHT22;8328;52.206;21.006;2023-06-04T21:41:46;14.80;15.10
16437;DHT22;8328;52.206;21.006;2023-06-04T21:44:12;14.80;15.70
16437;DHT22;8328;52.206;21.006;2023-06-04T21:46:38;14.80;15.60
16437;DHT22;8328;52.206;21.006;2023-06-04T21:49:04;14.80;15.40
16437;DHT22;8328;52.206;21.006;2023-06-04T21:51:30;14.70;15.70
16437;DHT22;8328;52.206;21.006;2023-06-04T21:53:57;14.60;15.80
16437;DHT22;8328;52.206;21.006;2023-06-04T21:56:23;14.60;16.30
16437;DHT22;8328;52.206;21.006;2023-06-04T21:58:49;14.60;16.00
16437;DHT22;8328;52.206;21.006;2023-06-04T22:01:15;14.50;16.50
16437;DHT22;8328;52.206;21.006;2023-06-04T22:06:07;14.50;16.30
16437;DHT22;8328;52.206;21.006;2023-06-04T22:08:33;14.40;17.30
16437;DHT22;8328;52.206;21.006;2023-06-04T22:10:59;14.40;17.50
16437;DHT22;8328;52.206;21.006;2023-06-04T22:13:24;14.30;16.90
16437;DHT22;8328;52.206;21.006;2023-06-04T22:15:51;14.30;17.30
16437;DHT22;8328;52.206;21.006;2023-06-04T22:20:43;14.20;17.30
16437;DHT22;8328;52.206;21.006;2023-06-04T22:23:09;14.20;17.80
16437;DHT22;8328;52.206;21.006;2023-06-04T22:25:35;14.10;17.90
16437;DHT22;8328;52.206;21.006;2023-06-04T22:30:27;14.20;18.20
16437;DHT22;8328;52.206;21.006;2023-06-04T22:32:53;14.10;18.60
16437;DHT22;8328;52.206;21.006;2023-06-04T22:35:19;14.10;18.90
16437;DHT22;8328;52.206;21.006;2023-06-04T22:37:45;14.10;18.80
16437;DHT22;8328;52.206;21.006;2023-06-04T22:40:11;14.00;19.50
16437;DHT22;8328;52.206;21.006;2023-06-04T22:42:39;14.00;19.40
16437;DHT22;8328;52.206;21.006;2023-06-04T22:45:06;14.00;19.60
16437;DHT22;8328;52.206;21.006;2023-06-04T22:47:32;14.00;20.20
16437;DHT22;8328;52.206;21.006;2023-06-04T22:52:26;13.90;20.20
16437;DHT22;8328;52.206;21.006;2023-06-04T22:54:52;13.90;22.00
16437;DHT22;8328;52.206;21.006;2023-06-04T22:57:18;13.90;21.90
16437;DHT22;8328;52.206;21.006;2023-06-04T22:59:44;17.20;23.30
16437;DHT22;8328;52.206;21.006;2023-06-04T23:02:10;13.80;21.00
16437;DHT22;8328;52.206;21.006;2023-06-04T23:04:36;13.80;21.00
16437;DHT22;8328;52.206;21.006;2023-06-04T23:07:02;13.80;21.10
16437;DHT22;8328;52.206;21.006;2023-06-04T23:09:29;13.80;21.10
16437;DHT22;8328;52.206;21.006;2023-06-04T23:11:55;13.80;21.00
16437;DHT22;8328;52.206;21.006;2023-06-04T23:14:21;13.80;21.00
16437;DHT22;8328;52.206;21.006;2023-06-04T23:16:47;13.90;21.10
16437;DHT22;8328;52.206;21.006;2023-06-04T23:19:13;13.80;21.10
16437;DHT22;8328;52.206;21.006;2023-06-04T23:21:39;12.90;20.80